Main page


Airports :

London, England

London City Airport

latitude: 51-30N, longitude: 000-03E, elevation: 5 m

Current weather observation

The report was made 28 minutes ago, at 05:50 UTC
Wind 6 kt from the West/Northwest, varying between West and North
Temperature 3°C
Humidity 87%
Pressure 1024 hPa
Visibility 10 km or more
Broken clouds at a height of 1300 ft
Overcast at a height of 2700 ft

METAR: EGLC 200550Z AUTO 30006KT 270V350 9999 BKN013 OVC027 03/01 Q1024

Time: 06:18 (06:18 UTC)


The report was made 1 hour and 14 minutes ago, at 05:04 UTC
Forecast valid from 20 at 06 UTC to 20 at 15 UTC
Wind 10 kt from the North
Visibility 10 km or more
Scattered clouds at a height of 4000 ft
Probability 30% :
from 20 at 06 UTC to 20 at 09 UTC
Visibility: 8000 m
Broken clouds at a height of 900 ft
light rain showers

TAF: EGLC 200504Z 2006/2015 36010KT 9999 SCT040 PROB30 TEMPO 2006/2009 8000 -SHRA BKN009

Weather observations and forecasts of more than 4000 airports (METAR and TAF reports).

The available stations are represented by yellow and red dots on the map.

Hover mouse over dot to see the name of the station.

Then click to see weather observations and forecasts.

To change the map : click on the green buttons with a black cross to zoom in, on the green button with a dash to zoom out, or on the green arrows for adjacent maps.